Time;durP1;ratioP1;P1;durP2;ratioP2;P2;SDS_P1;SDS_P2;PMS_P1;PMS_P2;Temp;Humidity;BMP_temperature;BMP_pressure;BME280_temperature;BME280_humidity;BME280_pressure;Samples;Min_cycle;Max_cycle;Signal;HPM_P1;HPM_P2
2022/06/09 00:01:26;;;;;;;1.40;0.60;;;13.50;99.90;;;;;;5068019;28;20404;-82
2022/06/09 00:04:13;;;;;;;1.20;0.50;;;13.50;99.90;;;;;;5066583;28;20429;-82
2022/06/09 00:06:44;;;;;;;1.93;0.83;;;13.50;99.90;;;;;;5067543;28;20499;-82
2022/06/09 00:09:09;;;;;;;3.63;1.00;;;13.50;99.90;;;;;;5068062;28;20399;-82
2022/06/09 00:11:38;;;;;;;2.23;0.73;;;13.40;99.90;;;;;;5067980;28;20421;-83
2022/06/09 00:14:06;;;;;;;2.53;0.97;;;13.40;99.90;;;;;;5069342;28;20189;-83
2022/06/09 00:16:33;;;;;;;9.63;1.03;;;13.40;99.90;;;;;;5068708;28;20426;-83
2022/06/09 00:18:58;;;;;;;1.47;0.67;;;13.40;99.90;;;;;;5067570;28;20552;-83
2022/06/09 00:21:24;;;;;;;2.00;0.70;;;13.30;99.90;;;;;;5067483;28;20891;-81
2022/06/09 00:23:50;;;;;;;1.80;0.70;;;13.30;99.90;;;;;;5067506;28;20196;-82
2022/06/09 00:26:16;;;;;;;1.20;0.50;;;13.20;99.90;;;;;;5067614;28;20183;-81
2022/06/09 00:28:42;;;;;;;2.37;0.80;;;13.10;99.90;;;;;;5067280;28;20493;-82
2022/06/09 00:31:07;;;;;;;2.27;0.60;;;13.00;99.90;;;;;;5067642;28;20492;-82
2022/06/09 00:33:33;;;;;;;1.20;0.50;;;13.00;99.90;;;;;;5067120;28;20223;-81
2022/06/09 00:35:58;;;;;;;3.93;1.10;;;13.00;99.90;;;;;;5067375;28;20353;-81
2022/06/09 00:38:24;;;;;;;1.50;0.70;;;12.90;99.90;;;;;;5067147;28;20201;-82
2022/06/09 00:40:50;;;;;;;1.50;0.60;;;13.00;99.90;;;;;;5066977;28;20566;-82
2022/06/09 00:43:16;;;;;;;1.70;0.60;;;13.00;99.90;;;;;;5067248;28;20415;-82
2022/06/09 00:45:51;;;;;;;2.90;0.60;;;13.00;99.90;;;;;;5067598;28;20173;-82
2022/06/09 00:48:44;;;;;;;4.43;0.70;;;12.90;99.90;;;;;;5067216;28;20177;-82
2022/06/09 00:51:25;;;;;;;1.30;0.60;;;12.90;99.90;;;;;;5067255;28;20411;-82
2022/06/09 00:54:14;;;;;;;1.40;0.67;;;12.90;99.90;;;;;;5067155;28;20804;-82
2022/06/09 00:57:05;;;;;;;2.17;0.87;;;12.90;99.90;;;;;;5066783;28;20478;-82
2022/06/09 00:59:34;;;;;;;1.40;0.53;;;12.90;99.90;;;;;;5058780;28;20966;-83
2022/06/09 01:02:06;;;;;;;1.40;0.60;;;12.90;99.90;;;;;;5070495;28;20416;-82
2022/06/09 01:04:33;;;;;;;3.73;0.90;;;12.90;99.90;;;;;;5069597;28;20407;-82
2022/06/09 01:07:08;;;;;;;7.20;1.20;;;12.90;99.90;;;;;;5070585;28;20849;-82
2022/06/09 01:09:35;;;;;;;9.90;0.80;;;12.90;99.90;;;;;;5070560;28;20884;-82
2022/06/09 01:12:00;;;;;;;1.53;0.70;;;12.90;99.90;;;;;;5070604;28;20917;-82
2022/06/09 01:14:29;;;;;;;1.70;0.70;;;12.90;99.90;;;;;;5070559;28;20954;-82
2022/06/09 01:17:18;;;;;;;2.20;0.90;;;12.90;99.90;;;;;;5070468;28;20177;-82
2022/06/09 01:19:50;;;;;;;1.57;0.77;;;12.90;99.90;;;;;;5070326;28;20543;-82
2022/06/09 01:22:28;;;;;;;4.20;0.73;;;12.90;99.90;;;;;;5069726;28;20976;-82
2022/06/09 01:24:53;;;;;;;18.20;0.90;;;12.90;99.90;;;;;;5070165;28;20447;-82
2022/06/09 01:27:38;;;;;;;1.80;0.77;;;12.90;99.90;;;;;;5070147;28;20451;-82
2022/06/09 01:30:26;;;;;;;1.40;0.80;;;12.90;99.90;;;;;;5070343;28;20176;-82
2022/06/09 01:33:05;;;;;;;1.53;0.77;;;12.90;99.90;;;;;;5070358;28;20407;-82
2022/06/09 01:35:43;;;;;;;1.97;0.70;;;12.90;99.90;;;;;;5070662;28;20407;-82
2022/06/09 01:38:10;;;;;;;5.00;1.10;;;12.90;99.90;;;;;;5069828;28;20466;-82
2022/06/09 01:40:36;;;;;;;1.50;0.70;;;12.90;99.90;;;;;;5070410;28;20420;-82
2022/06/09 01:43:05;;;;;;;1.97;0.80;;;12.90;99.90;;;;;;5069574;28;20418;-82
2022/06/09 01:45:54;;;;;;;1.43;0.70;;;12.90;99.90;;;;;;5070012;28;20485;-82
2022/06/09 01:48:21;;;;;;;1.30;0.60;;;12.90;99.90;;;;;;5069482;28;20954;-82
2022/06/09 01:50:55;;;;;;;1.30;0.60;;;12.80;99.90;;;;;;5068950;28;20435;-82
2022/06/09 01:53:34;;;;;;;4.80;0.70;;;12.70;99.90;;;;;;5076883;28;20425;-82
2022/06/09 01:56:28;;;;;;;3.00;0.97;;;12.70;99.90;;;;;;5069695;28;20411;-81
2022/06/09 01:59:08;;;;;;;1.70;0.80;;;12.70;99.90;;;;;;5065113;28;20578;-82
2022/06/09 02:01:44;;;;;;;1.73;0.80;;;12.70;99.90;;;;;;5069067;28;20510;-82
2022/06/09 02:04:22;;;;;;;3.60;0.67;;;12.70;99.90;;;;;;5069166;28;20930;-82
2022/06/09 02:06:50;;;;;;;1.60;0.87;;;12.60;99.90;;;;;;5070180;28;20406;-82
2022/06/09 02:09:16;;;;;;;1.57;0.90;;;12.70;99.90;;;;;;5069875;28;20415;-82
2022/06/09 02:11:54;;;;;;;1.50;0.60;;;12.60;99.90;;;;;;5069320;28;20962;-82
2022/06/09 02:14:22;;;;;;;1.30;0.50;;;12.60;99.90;;;;;;5069369;28;20411;-82
2022/06/09 02:16:48;;;;;;;1.30;0.60;;;12.60;99.90;;;;;;5069122;28;20445;-82
2022/06/09 02:19:14;;;;;;;1.40;0.63;;;12.60;99.90;;;;;;5069111;28;20963;-82
2022/06/09 02:21:40;;;;;;;2.57;1.10;;;12.50;99.90;;;;;;5068885;28;20181;-82
2022/06/09 02:24:07;;;;;;;2.10;1.00;;;12.50;99.90;;;;;;5069040;28;20196;-82
2022/06/09 02:26:33;;;;;;;1.53;0.63;;;12.50;99.90;;;;;;5069038;28;20702;-82
2022/06/09 02:28:58;;;;;;;2.37;0.80;;;12.50;99.90;;;;;;5069668;28;20477;-82
2022/06/09 02:31:24;;;;;;;2.27;0.70;;;12.50;99.90;;;;;;5069108;28;20732;-82
2022/06/09 02:33:51;;;;;;;1.57;0.60;;;12.50;99.90;;;;;;5069014;28;20292;-82
2022/06/09 02:36:17;;;;;;;1.67;0.70;;;12.50;99.90;;;;;;5068989;28;20424;-82
2022/06/09 02:38:43;;;;;;;1.67;0.90;;;12.50;99.90;;;;;;5068641;28;20463;-82
2022/06/09 02:41:09;;;;;;;1.40;0.60;;;12.50;99.90;;;;;;5068906;28;20462;-82
2022/06/09 02:43:35;;;;;;;1.37;0.77;;;12.50;99.90;;;;;;5068399;28;20626;-82
2022/06/09 02:46:03;;;;;;;1.87;0.60;;;12.40;99.90;;;;;;5068665;28;20498;-82
2022/06/09 02:48:28;;;;;;;1.83;0.80;;;12.40;99.90;;;;;;5068253;28;20663;-82
2022/06/09 02:50:54;;;;;;;1.60;0.80;;;12.40;99.90;;;;;;5068871;28;20558;-82
2022/06/09 02:53:23;;;;;;;1.30;0.53;;;12.40;99.90;;;;;;5068257;28;20185;-82
2022/06/09 02:55:50;;;;;;;1.83;0.83;;;12.40;99.90;;;;;;5068821;28;20184;-82
2022/06/09 02:58:16;;;;;;;2.70;0.70;;;12.40;99.90;;;;;;5068207;28;20554;-81
2022/06/09 03:00:42;;;;;;;1.50;0.70;;;12.40;99.90;;;;;;5068455;28;20548;-82
2022/06/09 03:03:13;;;;;;;1.60;0.80;;;12.40;99.90;;;;;;5068087;28;20763;-82
2022/06/09 03:05:38;;;;;;;2.00;0.77;;;12.40;99.90;;;;;;5068032;28;20755;-82
2022/06/09 03:08:06;;;;;;;1.37;0.57;;;12.40;99.90;;;;;;5068428;28;20460;-81
2022/06/09 03:10:33;;;;;;;5.00;1.00;;;12.40;99.90;;;;;;5068698;28;20181;-81
2022/06/09 03:12:58;;;;;;;1.70;0.80;;;12.40;99.90;;;;;;5068225;28;20434;-82
2022/06/09 03:15:25;;;;;;;1.73;0.90;;;12.40;99.90;;;;;;5068464;28;20419;-81
2022/06/09 03:17:51;;;;;;;5.33;1.43;;;12.40;99.90;;;;;;5067939;28;20250;-81
2022/06/09 03:20:21;;;;;;;1.50;0.60;;;12.40;99.90;;;;;;5068321;28;20420;-81
2022/06/09 03:22:47;;;;;;;2.43;1.00;;;12.30;99.90;;;;;;5067587;28;20826;-81
2022/06/09 03:25:13;;;;;;;1.60;0.90;;;12.30;99.90;;;;;;5068698;28;20412;-81
2022/06/09 03:27:39;;;;;;;8.27;0.90;;;12.30;99.90;;;;;;5068038;28;20415;-81
2022/06/09 03:30:06;;;;;;;3.03;1.00;;;12.30;99.90;;;;;;5068012;28;20172;-81
2022/06/09 03:32:32;;;;;;;2.27;0.90;;;12.30;99.90;;;;;;5067781;28;20426;-81
2022/06/09 03:34:58;;;;;;;6.90;1.07;;;12.30;99.90;;;;;;5067972;28;20431;-82
2022/06/09 03:37:24;;;;;;;4.87;1.10;;;12.30;99.90;;;;;;5067688;28;20181;-81
2022/06/09 03:39:50;;;;;;;1.97;1.10;;;12.30;99.90;;;;;;5067410;28;20208;-81
2022/06/09 03:42:15;;;;;;;1.77;0.87;;;12.30;99.90;;;;;;5067770;28;20238;-82
2022/06/09 03:44:41;;;;;;;2.53;1.20;;;12.30;99.90;;;;;;5067787;28;20751;-81
2022/06/09 03:47:07;;;;;;;2.43;1.20;;;12.30;99.90;;;;;;5067453;28;20220;-81
2022/06/09 03:49:33;;;;;;;1.90;1.03;;;12.30;99.90;;;;;;5068255;28;20192;-81
2022/06/09 03:51:58;;;;;;;2.03;1.10;;;12.40;99.90;;;;;;5067336;28;20181;-82
2022/06/09 03:54:24;;;;;;;3.07;1.00;;;12.40;99.90;;;;;;5067663;28;20216;-81
2022/06/09 03:56:51;;;;;;;4.37;1.40;;;12.30;99.90;;;;;;5067579;28;20191;-81
2022/06/09 03:59:17;;;;;;;2.47;1.10;;;12.40;99.90;;;;;;5067509;28;20196;-82
2022/06/09 04:01:42;;;;;;;3.83;0.97;;;12.30;99.90;;;;;;5066597;28;20423;-81
2022/06/09 04:04:09;;;;;;;1.87;0.80;;;12.30;99.90;;;;;;5066805;28;20227;-82
2022/06/09 04:06:35;;;;;;;1.90;0.80;;;12.30;99.90;;;;;;5067494;28;20210;-81
2022/06/09 04:09:02;;;;;;;5.90;1.13;;;12.30;99.90;;;;;;5067655;28;20907;-82
2022/06/09 04:11:28;;;;;;;2.70;1.30;;;12.30;99.90;;;;;;5067259;28;20204;-81
2022/06/09 04:13:54;;;;;;;4.77;1.27;;;12.30;99.90;;;;;;5067541;28;20769;-82
2022/06/09 04:16:27;;;;;;;3.27;1.23;;;12.30;99.90;;;;;;5067566;28;20199;-81
2022/06/09 04:18:54;;;;;;;7.50;1.30;;;12.30;99.90;;;;;;5067543;28;20192;-81
2022/06/09 04:21:21;;;;;;;5.10;1.10;;;12.30;99.90;;;;;;5067735;28;20451;-81
2022/06/09 04:23:47;;;;;;;3.83;1.20;;;12.30;99.90;;;;;;5067098;28;20431;-82
2022/06/09 04:26:19;;;;;;;3.10;1.40;;;12.30;99.90;;;;;;5067274;28;20461;-81
2022/06/09 04:28:45;;;;;;;4.40;1.20;;;12.20;99.90;;;;;;5067313;28;20597;-81
2022/06/09 04:31:11;;;;;;;1.93;0.80;;;12.30;99.90;;;;;;5067050;28;20416;-81
2022/06/09 04:33:37;;;;;;;2.17;1.30;;;12.30;99.90;;;;;;5067224;28;20419;-82
2022/06/09 04:36:05;;;;;;;3.00;1.80;;;12.30;99.90;;;;;;5071104;28;20422;-82
2022/06/09 04:38:30;;;;;;;1.90;1.03;;;12.30;99.90;;;;;;5071551;28;20924;-81
2022/06/09 04:40:56;;;;;;;2.00;1.00;;;12.30;99.90;;;;;;5071441;28;20514;-81
2022/06/09 04:43:22;;;;;;;4.07;2.03;;;12.20;99.90;;;;;;5070664;28;20178;-82
2022/06/09 04:45:47;;;;;;;2.73;1.30;;;12.30;99.90;;;;;;5070986;28;20304;-81
2022/06/09 04:48:14;;;;;;;3.60;1.10;;;12.30;99.90;;;;;;5070754;28;20645;-81
2022/06/09 04:50:42;;;;;;;3.00;0.87;;;12.40;99.90;;;;;;5070690;28;20543;-81
2022/06/09 04:53:09;;;;;;;2.33;1.33;;;12.30;99.90;;;;;;5070243;28;20462;-81
2022/06/09 04:55:38;;;;;;;3.47;1.43;;;12.30;99.90;;;;;;5071074;28;20422;-81
2022/06/09 04:58:05;;;;;;;3.57;1.73;;;12.30;99.90;;;;;;5070823;28;20940;-81
2022/06/09 05:00:31;;;;;;;1.73;0.90;;;12.30;99.90;;;;;;5071057;28;20422;-81
2022/06/09 05:02:59;;;;;;;2.30;1.10;;;12.30;99.90;;;;;;5070825;28;20518;-81
2022/06/09 05:05:29;;;;;;;5.10;1.13;;;12.30;99.90;;;;;;5069652;28;20943;-81
2022/06/09 05:07:56;;;;;;;3.30;1.20;;;12.40;99.90;;;;;;5070553;28;20410;-81
2022/06/09 05:10:22;;;;;;;5.63;0.97;;;12.50;99.90;;;;;;5070873;28;20419;-81
2022/06/09 05:12:47;;;;;;;5.30;1.00;;;12.50;99.90;;;;;;5070229;28;20457;-81
2022/06/09 05:15:16;;;;;;;1.53;0.80;;;12.50;99.90;;;;;;5070824;28;20411;-81
2022/06/09 05:17:42;;;;;;;2.67;1.70;;;12.60;99.90;;;;;;5069818;28;20188;-81
2022/06/09 05:20:13;;;;;;;2.03;1.00;;;12.70;99.90;;;;;;5070454;28;20471;-81
2022/06/09 05:22:39;;;;;;;4.60;0.87;;;12.80;99.90;;;;;;5070038;28;20427;-81
2022/06/09 05:25:06;;;;;;;2.07;1.00;;;12.80;99.90;;;;;;5070509;28;20451;-81
2022/06/09 05:27:32;;;;;;;2.13;0.90;;;12.90;99.90;;;;;;5070272;28;20180;-81
2022/06/09 05:29:58;;;;;;;5.77;1.27;;;12.90;99.90;;;;;;5070205;28;20453;-81
2022/06/09 05:32:23;;;;;;;2.37;0.70;;;13.00;99.90;;;;;;5069788;28;20637;-81
2022/06/09 05:34:49;;;;;;;2.23;1.07;;;13.00;99.90;;;;;;5069995;28;20319;-82
2022/06/09 05:37:15;;;;;;;4.90;1.50;;;13.00;99.90;;;;;;5069975;28;20193;-81
2022/06/09 05:45:11;;;;;;;1.33;0.63;;;13.10;99.90;;;;;;5069754;28;20440;-81
2022/06/09 05:47:36;;;;;;;3.30;0.93;;;13.10;99.90;;;;;;5069926;28;20411;-82
2022/06/09 05:50:03;;;;;;;4.87;1.23;;;13.20;99.90;;;;;;5069884;28;20443;-82
2022/06/09 05:52:29;;;;;;;2.00;0.90;;;13.20;99.90;;;;;;5069609;28;20196;-82
2022/06/09 05:54:56;;;;;;;2.10;1.03;;;13.20;99.90;;;;;;5069914;28;20423;-82
2022/06/09 05:57:23;;;;;;;3.70;0.90;;;13.30;99.90;;;;;;5069389;28;21112;-82
2022/06/09 05:59:49;;;;;;;3.30;1.10;;;13.30;99.90;;;;;;5069828;28;20458;-81
2022/06/09 06:02:17;;;;;;;2.90;1.33;;;13.40;99.90;;;;;;5068961;28;20419;-82
2022/06/09 06:04:42;;;;;;;12.10;1.20;;;13.40;99.90;;;;;;5068906;28;20469;-82
2022/06/09 06:07:08;;;;;;;2.90;0.83;;;13.50;99.90;;;;;;5068875;28;20507;-82
2022/06/09 06:09:34;;;;;;;6.27;1.17;;;13.50;99.90;;;;;;5069205;28;20469;-81
2022/06/09 06:12:03;;;;;;;1.90;0.70;;;13.40;99.90;;;;;;5069043;28;20188;-82
2022/06/09 06:14:29;;;;;;;2.80;0.87;;;13.40;99.90;;;;;;5069667;28;20424;-82
2022/06/09 06:16:55;;;;;;;2.70;1.07;;;13.40;99.90;;;;;;5068982;28;20836;-82
2022/06/09 06:19:22;;;;;;;18.17;1.60;;;13.40;99.90;;;;;;5069141;28;21161;-82
2022/06/09 06:21:49;;;;;;;3.10;1.23;;;13.40;99.90;;;;;;5069000;28;20196;-82
2022/06/09 06:24:15;;;;;;;3.53;1.30;;;13.40;99.90;;;;;;5068842;28;20427;-82
2022/06/09 06:26:41;;;;;;;5.13;0.90;;;13.40;99.90;;;;;;5068894;28;20446;-81
2022/06/09 06:29:15;;;;;;;5.00;1.50;;;13.70;99.90;;;;;;5069019;28;20663;-82
2022/06/09 06:31:41;;;;;;;2.77;1.00;;;13.60;99.90;;;;;;5068753;28;20161;-82
2022/06/09 06:34:07;;;;;;;5.13;1.37;;;13.80;99.90;;;;;;5068948;28;20427;-82
2022/06/09 06:36:32;;;;;;;6.50;1.07;;;14.10;99.90;;;;;;5068670;28;20821;-81
2022/06/09 06:38:58;;;;;;;4.83;1.17;;;14.10;99.90;;;;;;5068966;28;20247;-82
2022/06/09 06:41:24;;;;;;;3.33;0.93;;;14.30;99.90;;;;;;5068746;28;20177;-82
2022/06/09 06:43:50;;;;;;;3.30;1.00;;;14.50;99.90;;;;;;5068842;28;20183;-81
2022/06/09 06:46:16;;;;;;;1.63;0.80;;;14.70;99.90;;;;;;5068745;28;20502;-82
2022/06/09 06:48:42;;;;;;;2.87;1.20;;;14.70;99.90;;;;;;5068610;28;20211;-82
2022/06/09 06:51:08;;;;;;;4.33;0.90;;;14.70;99.90;;;;;;5068305;28;20447;-82
2022/06/09 06:53:35;;;;;;;6.13;0.80;;;14.60;99.90;;;;;;5068749;28;20231;-82
2022/06/09 06:56:02;;;;;;;3.10;1.03;;;14.50;99.90;;;;;;5068331;28;20181;-82
2022/06/09 06:58:28;;;;;;;2.37;0.70;;;14.10;99.90;;;;;;5068374;28;20493;-82
2022/06/09 07:00:53;;;;;;;5.10;0.80;;;13.90;99.90;;;;;;5068567;28;20474;-82
2022/06/09 07:03:19;;;;;;;2.37;1.37;;;13.80;99.90;;;;;;5067000;28;20506;-82
2022/06/09 07:05:45;;;;;;;9.13;1.07;;;14.00;99.90;;;;;;5068477;28;20192;-82
2022/06/09 07:08:15;;;;;;;18.77;2.20;;;14.10;99.90;;;;;;5068121;28;20181;-83
2022/06/09 07:10:42;;;;;;;4.40;0.90;;;14.20;99.90;;;;;;5068433;28;20161;-82
2022/06/09 07:13:08;;;;;;;5.90;1.13;;;14.40;99.90;;;;;;5068031;28;20782;-82
2022/06/09 07:15:34;;;;;;;4.50;1.13;;;14.60;99.90;;;;;;5067976;28;20411;-82
2022/06/09 07:17:59;;;;;;;11.23;1.50;;;14.80;99.90;;;;;;5068184;28;20203;-82
2022/06/09 07:20:25;;;;;;;12.67;1.00;;;14.90;99.90;;;;;;5068281;28;20176;-83
2022/06/09 07:22:51;;;;;;;4.33;0.80;;;15.10;99.90;;;;;;5068141;28;20208;-82
2022/06/09 07:25:23;;;;;;;3.30;0.97;;;15.60;99.90;;;;;;5068263;28;20408;-82
2022/06/09 07:27:51;;;;;;;4.27;1.13;;;15.90;99.90;;;;;;5067974;28;20192;-82
2022/06/09 07:30:17;;;;;;;2.67;0.80;;;16.20;99.90;;;;;;5068145;28;20515;-83
2022/06/09 07:32:43;;;;;;;3.93;0.70;;;16.40;99.90;;;;;;5068036;28;20891;-82
2022/06/09 07:35:12;;;;;;;1.90;0.83;;;16.70;99.90;;;;;;5068011;28;20427;-83
2022/06/09 07:37:37;;;;;;;1.70;0.87;;;17.30;99.20;;;;;;5068025;28;20553;-83
2022/06/09 07:40:04;;;;;;;6.67;1.20;;;17.70;97.50;;;;;;5068215;28;20555;-83
2022/06/09 07:42:30;;;;;;;2.17;0.90;;;18.20;96.40;;;;;;5067830;28;20176;-83
2022/06/09 07:44:57;;;;;;;1.50;0.60;;;18.90;95.00;;;;;;5067815;28;20411;-83
2022/06/09 07:47:23;;;;;;;2.00;0.50;;;19.20;94.10;;;;;;5068037;28;20762;-82
2022/06/09 07:49:49;;;;;;;6.40;0.93;;;19.80;93.50;;;;;;5068258;28;20431;-81
2022/06/09 07:52:15;;;;;;;6.60;1.37;;;20.50;92.50;;;;;;5067914;28;20433;-81
2022/06/09 07:54:41;;;;;;;1.70;0.80;;;20.90;91.70;;;;;;5068282;28;20414;-81
2022/06/09 07:57:07;;;;;;;4.13;1.10;;;21.40;90.20;;;;;;5068015;28;20241;-81
2022/06/09 07:59:34;;;;;;;4.07;1.10;;;21.70;88.50;;;;;;5067995;28;20966;-81
2022/06/09 08:02:00;;;;;;;10.27;1.27;;;21.00;89.60;;;;;;5067986;28;20198;-81
2022/06/09 08:04:26;;;;;;;4.50;0.80;;;20.00;90.50;;;;;;5066748;28;20507;-82
2022/06/09 08:06:52;;;;;;;12.80;1.03;;;20.00;90.60;;;;;;5067936;28;20177;-80
2022/06/09 08:09:18;;;;;;;2.53;1.03;;;19.60;90.30;;;;;;5071214;28;20340;-80
2022/06/09 08:11:45;;;;;;;3.60;1.10;;;19.00;91.40;;;;;;5071834;28;20809;-81
2022/06/09 08:14:11;;;;;;;1.63;0.73;;;19.40;91.80;;;;;;5071683;28;20895;-80
2022/06/09 08:16:38;;;;;;;2.77;0.90;;;19.90;91.60;;;;;;5071497;28;20418;-81
2022/06/09 08:19:05;;;;;;;1.90;0.60;;;20.70;89.40;;;;;;5071601;28;20503;-81
2022/06/09 08:21:31;;;;;;;7.37;0.97;;;21.10;87.60;;;;;;5071603;28;20430;-81
2022/06/09 08:23:58;;;;;;;2.33;0.80;;;20.70;89.30;;;;;;5071832;28;20481;-81
2022/06/09 08:26:24;;;;;;;4.07;0.60;;;19.90;90.00;;;;;;5071743;28;20411;-81
2022/06/09 08:28:49;;;;;;;1.90;0.73;;;19.00;90.90;;;;;;5071375;28;20453;-81
2022/06/09 08:31:16;;;;;;;2.33;0.70;;;18.50;92.40;;;;;;5071646;28;20212;-81
2022/06/09 08:33:42;;;;;;;2.13;0.70;;;18.70;92.40;;;;;;5071457;28;20395;-81
2022/06/09 08:36:08;;;;;;;5.90;0.80;;;18.80;90.70;;;;;;5071200;28;20423;-81
2022/06/09 08:38:33;;;;;;;7.50;0.97;;;18.50;91.10;;;;;;5070469;28;20491;-81
2022/06/09 08:41:18;;;;;;;1.70;0.60;;;18.50;91.30;;;;;;5071089;28;20450;-81
2022/06/09 08:44:16;;;;;;;2.93;1.03;;;18.90;90.70;;;;;;5071167;28;20177;-81
2022/06/09 08:47:01;;;;;;;4.93;0.93;;;19.60;89.10;;;;;;5071527;28;20468;-81
2022/06/09 08:49:30;;;;;;;5.30;0.60;;;20.60;90.00;;;;;;5070976;28;20410;-82
2022/06/09 08:52:01;;;;;;;4.80;0.60;;;20.50;84.90;;;;;;5070638;28;20465;-82
2022/06/09 08:54:32;;;;;;;1.60;0.80;;;20.80;84.70;;;;;;5070790;28;20413;-81
2022/06/09 08:57:01;;;;;;;5.50;0.90;;;21.10;84.80;;;;;;5070741;28;20493;-81
2022/06/09 08:59:37;;;;;;;2.13;0.90;;;21.60;83.50;;;;;;5052642;28;20466;-81
2022/06/09 09:02:30;;;;;;;7.00;1.13;;;21.50;81.30;;;;;;5071050;28;20409;-81
2022/06/09 09:05:26;;;;;;;3.60;0.70;;;21.50;83.40;;;;;;5069473;28;20415;-81
2022/06/09 09:07:55;;;;;;;2.10;0.70;;;20.60;82.60;;;;;;5069287;28;20538;-81
2022/06/09 09:10:56;;;;;;;2.80;0.90;;;20.00;86.80;;;;;;5070528;28;20423;-81
2022/06/09 09:14:12;;;;;;;5.10;0.77;;;19.60;87.30;;;;;;5070504;28;20789;-81
2022/06/09 09:16:48;;;;;;;2.00;0.80;;;19.80;86.80;;;;;;4988745;28;20439;-81
2022/06/09 09:19:52;;;;;;;1.40;0.50;;;19.60;85.40;;;;;;5058541;28;20562;-81
2022/06/09 09:22:56;;;;;;;1.80;0.57;;;19.50;88.40;;;;;;5054058;28;20430;-81
2022/06/09 09:25:47;;;;;;;6.60;0.90;;;19.90;89.30;;;;;;4988245;28;20426;-81
2022/06/09 09:28:28;;;;;;;17.10;0.90;;;20.50;85.50;;;;;;4988284;28;20839;-82
2022/06/09 09:31:41;;;;;;;1.60;0.70;;;20.90;83.20;;;;;;5049086;28;20506;-82
2022/06/09 09:34:24;;;;;;;1.57;0.80;;;21.30;83.60;;;;;;5071361;28;20426;-82
2022/06/09 09:36:55;;;;;;;1.97;0.50;;;21.10;82.60;;;;;;5071820;28;20419;-82
2022/06/09 09:39:40;;;;;;;1.70;0.70;;;21.00;85.20;;;;;;5071502;28;20464;-82
2022/06/09 09:42:20;;;;;;;4.10;0.80;;;20.60;83.60;;;;;;5071512;28;20923;-82
2022/06/09 09:44:59;;;;;;;6.93;0.80;;;20.50;82.50;;;;;;5071449;28;20407;-81
2022/06/09 09:47:27;;;;;;;3.10;0.90;;;19.90;84.40;;;;;;5071898;28;20391;-82
2022/06/09 09:50:01;;;;;;;6.90;0.93;;;19.60;85.10;;;;;;5071955;28;20427;-83
2022/06/09 09:52:52;;;;;;;1.40;0.60;;;19.00;88.00;;;;;;5071937;28;20461;-83
2022/06/09 09:55:27;;;;;;;1.50;0.60;;;18.60;87.70;;;;;;5072600;28;20950;-83
2022/06/09 09:58:14;;;;;;;3.50;1.10;;;18.20;90.50;;;;;;5071350;28;20469;-83
2022/06/09 10:00:40;;;;;;;1.70;0.80;;;18.00;92.80;;;;;;5071854;28;20923;-83
2022/06/09 10:08:51;;;;;;;10.00;1.30;;;18.20;91.80;;;;;;5083280;28;20496;-83
2022/06/09 10:14:02;;;;;;;1.60;0.63;;;19.60;88.30;;;;;;5070411;28;20401;-82
2022/06/09 10:16:32;;;;;;;4.43;0.83;;;20.10;84.50;;;;;;5052108;28;20470;-81
2022/06/09 10:19:02;;;;;;;3.20;1.03;;;20.50;84.50;;;;;;5069494;28;20496;-82
2022/06/09 10:21:50;;;;;;;1.47;0.60;;;20.70;81.50;;;;;;5069757;28;20412;-81
2022/06/09 10:24:24;;;;;;;2.03;0.60;;;20.40;80.70;;;;;;5069156;28;20857;-82
2022/06/09 10:26:54;;;;;;;2.23;0.70;;;20.10;80.10;;;;;;5069233;28;20408;-81
2022/06/09 10:29:40;;;;;;;2.80;0.93;;;20.10;81.70;;;;;;5069572;28;20415;-81
2022/06/09 10:32:16;;;;;;;2.23;0.60;;;19.80;79.50;;;;;;5069191;28;20895;-82
2022/06/09 10:35:04;;;;;;;3.97;1.20;;;19.60;79.70;;;;;;5069497;28;20422;-81
2022/06/09 10:37:35;;;;;;;2.17;0.73;;;19.70;80.70;;;;;;5068902;28;20921;-81
2022/06/09 10:40:24;;;;;;;2.00;0.70;;;19.70;80.40;;;;;;5068867;28;20484;-82
2022/06/09 10:43:11;;;;;;;1.83;0.63;;;19.90;83.40;;;;;;5068776;28;20483;-81
2022/06/09 10:45:42;;;;;;;1.87;0.60;;;20.00;76.20;;;;;;5069293;28;20487;-81
2022/06/09 10:57:04;;;;;;;4.03;1.37;;;20.30;79.10;;;;;;5069028;28;20391;-81
2022/06/09 10:59:48;;;;;;;5.03;0.77;;;20.40;79.20;;;;;;5069104;28;20957;-81
2022/06/09 11:02:21;;;;;;;7.40;1.00;;;20.00;82.10;;;;;;5068662;28;20945;-82
2022/06/09 11:04:48;;;;;;;2.13;0.73;;;19.70;86.90;;;;;;5067520;28;20419;-81
2022/06/09 11:07:38;;;;;;;4.23;0.87;;;19.20;88.20;;;;;;5069125;28;20468;-81
2022/06/09 11:10:12;;;;;;;2.70;0.77;;;18.80;91.10;;;;;;5068564;28;20453;-82
2022/06/09 11:13:02;;;;;;;3.03;0.80;;;18.50;90.20;;;;;;5068642;28;20422;-81
2022/06/09 11:15:52;;;;;;;2.50;0.80;;;18.40;90.20;;;;;;5068540;28;20402;-81
2022/06/09 11:18:59;;;;;;;1.70;0.60;;;18.50;90.70;;;;;;5068411;28;20408;-81
2022/06/09 11:22:13;;;;;;;5.10;1.10;;;18.60;90.60;;;;;;5042984;28;20431;-83
2022/06/09 11:24:50;;;;;;;3.20;0.80;;;18.60;87.50;;;;;;5044929;28;20427;-83
2022/06/09 11:27:15;;;;;;;2.27;0.83;;;18.40;87.60;;;;;;5068446;28;20391;-83
2022/06/09 11:29:59;;;;;;;4.07;1.00;;;18.30;87.60;;;;;;5068692;28;20411;-83
2022/06/09 11:32:39;;;;;;;1.80;0.80;;;18.60;85.60;;;;;;5067882;28;20167;-83
2022/06/09 11:35:15;;;;;;;4.27;1.30;;;18.50;87.10;;;;;;5068154;28;20482;-83
2022/06/09 11:38:04;;;;;;;55.33;2.47;;;18.50;84.60;;;;;;5048301;28;20706;-83
2022/06/09 11:40:53;;;;;;;25.13;0.97;;;18.50;82.50;;;;;;5049544;28;20412;-83
2022/06/09 11:43:39;;;;;;;50.87;3.70;;;18.90;81.40;;;;;;5057641;28;20412;-83
2022/06/09 11:46:34;;;;;;;19.63;1.83;;;19.20;83.90;;;;;;5054256;28;20485;-82
2022/06/09 11:49:04;;;;;;;22.97;1.30;;;19.10;83.10;;;;;;5041041;28;20927;-83
2022/06/09 11:51:33;;;;;;;2.30;0.70;;;19.10;81.40;;;;;;5055493;28;20921;-83
2022/06/09 11:54:03;;;;;;;2.17;0.80;;;19.10;81.80;;;;;;5071049;28;20515;-83
2022/06/09 11:56:40;;;;;;;2.60;0.93;;;18.80;83.60;;;;;;5087993;28;20914;-83
2022/06/09 11:59:12;;;;;;;5.00;1.07;;;18.60;85.40;;;;;;5088659;28;20450;-84
2022/06/09 12:01:37;;;;;;;10.57;1.07;;;18.30;86.30;;;;;;5087789;28;20418;-83
2022/06/09 12:04:34;;;;;;;3.53;0.80;;;18.30;87.50;;;;;;5085054;28;20406;-83
2022/06/09 12:07:31;;;;;;;37.73;3.00;;;18.50;81.80;;;;;;5068253;28;20227;-85
2022/06/09 12:09:59;;;;;;;6.70;0.93;;;18.40;85.40;;;;;;5068130;28;20422;-83
2022/06/09 12:12:31;;;;;;;2.80;1.00;;;18.40;85.40;;;;;;5067781;28;20465;-83
2022/06/09 12:15:11;;;;;;;17.73;1.57;;;18.50;83.80;;;;;;5068360;28;20444;-83
2022/06/09 12:17:51;;;;;;;1.60;0.50;;;18.60;83.40;;;;;;5067688;28;20427;-83
2022/06/09 12:20:56;;;;;;;3.13;0.93;;;18.70;75.10;;;;;;5067971;28;20458;-82
2022/06/09 12:23:39;;;;;;;2.30;0.70;;;18.90;79.00;;;;;;5067417;28;20466;-82
2022/06/09 12:26:10;;;;;;;20.03;2.60;;;19.20;75.50;;;;;;5067581;28;20490;-83
2022/06/09 12:28:57;;;;;;;16.93;1.17;;;19.60;78.20;;;;;;5067973;28;20907;-83
2022/06/09 12:31:37;;;;;;;3.23;1.10;;;19.90;77.00;;;;;;5068017;28;20391;-83
2022/06/09 12:34:03;;;;;;;1.30;0.53;;;19.80;74.00;;;;;;5067928;28;20438;-83
2022/06/09 12:36:31;;;;;;;3.53;1.27;;;19.60;74.00;;;;;;5067388;28;20431;-85
2022/06/09 12:38:58;;;;;;;2.23;0.70;;;19.70;78.60;;;;;;5067671;28;20209;-83
2022/06/09 12:41:36;;;;;;;14.93;1.00;;;20.30;79.80;;;;;;5067422;28;20917;-83
2022/06/09 12:44:25;;;;;;;1.33;0.57;;;20.80;76.60;;;;;;5067843;28;20403;-83
2022/06/09 12:47:02;;;;;;;1.70;0.73;;;20.80;77.20;;;;;;5067072;28;20533;-83
2022/06/09 12:49:34;;;;;;;4.90;1.00;;;20.60;80.00;;;;;;5067403;28;20402;-83
2022/06/09 12:52:01;;;;;;;1.40;0.60;;;20.20;81.30;;;;;;5067423;28;20457;-83
2022/06/09 12:54:37;;;;;;;1.70;0.50;;;19.80;84.00;;;;;;5067483;28;20408;-83
2022/06/09 12:57:21;;;;;;;51.23;3.87;;;19.70;83.30;;;;;;5053060;28;20430;-83
2022/06/09 13:00:00;;;;;;;86.53;8.63;;;19.60;81.20;;;;;;5071657;28;20902;-84
2022/06/09 13:02:30;;;;;;;6.90;1.17;;;19.50;81.00;;;;;;5070924;28;20399;-83
2022/06/09 13:05:01;;;;;;;2.83;1.33;;;19.80;79.80;;;;;;5069797;28;20429;-83
2022/06/09 13:07:34;;;;;;;2.13;0.60;;;20.10;80.80;;;;;;5070471;28;20465;-83
2022/06/09 13:10:18;;;;;;;1.63;0.70;;;20.00;80.50;;;;;;5071230;28;20811;-83
2022/06/09 13:12:51;;;;;;;1.77;0.70;;;19.90;80.90;;;;;;5070407;28;20404;-84
2022/06/09 13:15:25;;;;;;;2.43;0.83;;;20.10;78.50;;;;;;5071253;28;20880;-84
2022/06/09 13:17:52;;;;;;;3.83;1.00;;;20.30;75.20;;;;;;5070536;28;20430;-83
2022/06/09 13:20:23;;;;;;;1.50;0.70;;;20.00;77.30;;;;;;5071181;28;20451;-83
2022/06/09 13:22:49;;;;;;;2.27;0.77;;;19.70;78.60;;;;;;5070738;28;20911;-84
2022/06/09 13:25:22;;;;;;;1.87;1.00;;;19.40;79.70;;;;;;5071013;28;20427;-84
2022/06/09 13:27:48;;;;;;;1.70;0.50;;;19.70;79.70;;;;;;5070210;28;20177;-84
2022/06/09 13:30:26;;;;;;;3.33;0.80;;;20.20;79.80;;;;;;5070837;28;20850;-84
2022/06/09 13:32:52;;;;;;;3.60;0.80;;;20.60;78.70;;;;;;5070172;28;20411;-83